Data for 04/07/2016

Time Sea-Level Adjusted Pressure Absolute Pressure Temperature Relative Humidity Dew Point   
(mb) (inHg) (mb) (inHg) (C) (F) (%) (C) (F)
00:05 1025 30.27 854 25.22 8.7 47.7 38 -4.9 23.1
00:10 1025 30.27 854 25.22 8.9 48 37 -5 23
00:15 1025 30.27 854 25.22 8.9 48.1 37 -5 23.1
00:20 1025 30.27 854 25.22 8.8 47.9 37 -4.9 23.1
00:25 1025 30.27 854 25.22 8.8 47.8 37 -5 23
00:30 1025 30.27 854 25.22 8.7 47.7 38 -4.8 23.3
00:35 1025 30.27 854 25.22 8.5 47.4 38 -4.8 23.4
00:40 1025 30.27 854 25.22 8.4 47.1 39 -4.8 23.4
00:45 1025 30.27 854 25.22 8.3 46.9 39 -4.7 23.5
00:50 1025 30.27 854 25.22 8.1 46.5 40 -4.7 23.6
00:55 1025 30.27 854 25.22 7.6 45.8 42 -4.5 24
01:00 1025 30.27 854 25.22 7.1 44.8 43 -4.5 23.9
01:05 1025 30.27 854 25.22 7 44.5 44 -4.6 23.8
01:10 1025 30.27 855 25.25 6.8 44.3 45 -4.4 24.1
01:15 1025 30.27 855 25.25 6.7 44.1 44 -4.5 23.8
01:20 1025 30.27 855 25.25 6.9 44.5 44 -4.6 23.7
01:25 1025 30.27 855 25.25 7 44.6 43 -4.6 23.7
01:30 1025 30.27 855 25.25 7 44.6 44 -4.4 24.1
01:35 1025 30.27 855 25.25 6.8 44.2 45 -4.3 24.3
01:40 1025 30.27 855 25.25 6.6 43.9 45 -4.4 24.1
01:45 1025 30.27 855 25.25 6.6 44 45 -4.6 23.7
01:50 1025 30.27 855 25.25 6.7 44.1 44 -4.6 23.8
01:55 1025 30.27 855 25.25 6.6 43.9 45 -4.5 23.9
02:00 1025 30.27 855 25.25 6.5 43.6 46 -4.4 24.1
02:05 1025 30.27 855 25.25 6.4 43.6 46 -4.4 24.1
02:10 1025 30.27 855 25.25 6.6 44 45 -4.5 23.9
02:15 1025 30.27 855 25.25 6.7 44.1 45 -4.3 24.2
02:20 1026 30.3 855 25.25 6.6 43.8 46 -4.3 24.3
02:25 1026 30.3 855 25.25 6.5 43.8 46 -4.3 24.2
02:30 1025 30.27 855 25.25 6.5 43.7 46 -4.2 24.4
02:35 1025 30.27 855 25.25 6.5 43.6 45 -4.5 23.9
02:40 1025 30.27 855 25.25 6.6 43.8 46 -4.3 24.3
02:45 1026 30.3 855 25.25 6.5 43.7 46 -4.4 24.1
02:50 1026 30.3 855 25.25 6.4 43.6 46 -4.2 24.4
02:55 1026 30.3 855 25.25 6.1 43 48 -4.2 24.5
03:00 1026 30.3 855 25.25 5.8 42.4 49 -4.1 24.6
03:05 1026 30.3 855 25.25 5.5 41.9 50 -4.1 24.6
03:10 1026 30.3 855 25.25 5.2 41.3 51 -4 24.7
03:15 1026 30.3 855 25.25 5.1 41.2 51 -4.2 24.5
03:20 1026 30.3 855 25.25 5.2 41.3 51 -4.3 24.3
03:25 1026 30.3 855 25.25 5.4 41.8 50 -4.2 24.4
03:30 1026 30.3 855 25.25 5.6 42 50 -4.2 24.5
03:35 1026 30.3 855 25.25 5.5 42 50 -4 24.8
03:40 1026 30.3 855 25.25 5.3 41.6 50 -4.2 24.4
03:45 1026 30.3 855 25.25 5.6 42.2 48 -4.6 23.7
03:50 1026 30.3 855 25.25 5.9 42.6 49 -3.9 25
03:55 1026 30.3 855 25.25 5.4 41.6 52 -3.7 25.3
04:00 1026 30.3 855 25.25 5 40.9 54 -3.5 25.6
04:05 1026 30.3 855 25.25 4.5 40.2 54 -3.8 25.1
04:10 1026 30.3 855 25.25 4.5 40.1 54 -3.9 25
04:15 1026 30.3 855 25.25 4.6 40.4 53 -4 24.7
04:20 1026 30.3 855 25.25 4.6 40.2 55 -3.6 25.5
04:25 1026 30.3 855 25.25 4.5 40.2 53 -4.1 24.6
04:30 1026 30.3 855 25.25 4.6 40.3 54 -3.8 25.2
04:35 1026 30.3 855 25.25 4.4 39.9 55 -3.8 25.1
04:40 1026 30.3 855 25.25 4.2 39.6 56 -3.7 25.4
04:45 1026 30.3 855 25.25 4.1 39.4 56 -3.8 25.2
04:50 1026 30.3 855 25.25 4.2 39.6 58 -3.4 25.9
04:55 1026 30.3 855 25.25 3.8 38.9 59 -3.3 26
05:00 1026 30.3 855 25.25 3.8 38.9 58 -3.7 25.4
05:05 1026 30.3 855 25.25 3.7 38.7 59 -3.6 25.6
05:10 1026 30.3 855 25.25 3.7 38.7 58 -3.7 25.3
05:15 1026 30.3 855 25.25 3.9 39 58 -3.7 25.3
05:20 1026 30.3 855 25.25 3.8 38.9 58 -3.6 25.5
05:25 1026 30.3 855 25.25 3.5 38.4 59 -3.6 25.5
05:30 1026 30.3 855 25.25 3.5 38.3 60 -3.6 25.5
05:35 1026 30.3 855 25.25 3.4 38.1 60 -3.8 25.2
05:40 1026 30.3 855 25.25 3.5 38.3 59 -3.7 25.3
05:45 1026 30.3 855 25.25 3.6 38.6 58 -3.8 25.2
05:50 1026 30.3 855 25.25 3.8 38.9 59 -3.5 25.6
05:55 1026 30.3 855 25.25 3.8 38.9 58 -3.7 25.3
06:00 1026 30.3 855 25.25 4.2 39.5 58 -3.3 26
06:05 1025 30.27 855 25.25 4.1 39.4 58 -3.4 25.9
06:10 1026 30.3 855 25.25 4.2 39.5 58 -3.4 25.8
06:15 1026 30.3 855 25.25 4.3 39.8 57 -3.4 25.9
06:20 1026 30.3 855 25.25 4.4 39.9 58 -3.3 26.1
06:25 1026 30.3 855 25.25 4.2 39.5 59 -3.2 26.2
06:30 1026 30.3 855 25.25 4.4 40 57 -3.4 25.8
06:35 1026 30.3 855 25.25 4.7 40.5 56 -3.2 26.2
06:40 1026 30.3 855 25.25 4.9 40.9 55 -3.3 26.1
06:45 1026 30.3 855 25.25 5.3 41.5 53 -3.6 25.6
06:50 1026 30.3 855 25.25 5.8 42.4 52 -3.4 25.8
06:55 1026 30.3 855 25.25 5.8 42.5 52 -3.2 26.3
07:00 1026 30.3 855 25.25 6 42.8 52 -3.2 26.3
07:05 1026 30.3 855 25.25 6.4 43.5 50 -3.2 26.3
07:10 1026 30.3 855 25.25 6.5 43.7 51 -2.9 26.8
07:15 1026 30.3 855 25.25 6.8 44.2 49 -3.1 26.5
07:20 1026 30.3 855 25.25 7.3 45.2 47 -3.1 26.4
07:25 1026 30.3 855 25.25 7.7 45.9 47 -3 26.6
07:30 1026 30.3 855 25.25 8.2 46.8 47 -2.5 27.4
07:35 1026 30.3 855 25.25 8.3 46.9 46 -2.8 27
07:40 1026 30.3 855 25.25 8.6 47.5 46 -2.4 27.7
07:45 1026 30.3 855 25.25 8.8 47.8 46 -2.2 28
07:50 1026 30.3 855 25.25 9.3 48.7 44 -2.3 27.9
07:55 1026 30.3 855 25.25 9.7 49.5 43 -2.1 28.2
08:00 1026 30.3 855 25.25 10.1 50.2 42 -2 28.4
08:05 1026 30.3 855 25.25 10.8 51.4 41 -2 28.3
08:10 1026 30.3 855 25.25 11.4 52.5 39 -2 28.3
08:15 1026 30.3 855 25.25 11.3 52.3 39 -2.2 28
08:20 1026 30.3 855 25.25 11.7 53.1 38 -2.1 28.2
08:25 1026 30.3 855 25.25 12.1 53.7 35 -2.7 27.1
08:30 1026 30.3 855 25.25 12.4 54.3 34 -2.9 26.9
08:35 1026 30.3 855 25.25 12.3 54.1 33 -3.5 25.6
08:40 1026 30.3 855 25.25 11.9 53.4 36 -2.6 27.3
08:45 1026 30.3 855 25.25 11.6 52.8 33 -3.9 24.9
08:50 1026 30.3 855 25.25 11.9 53.5 34 -3.4 25.9
08:55 1026 30.3 855 25.25 11.8 53.2 34 -3.6 25.5
09:00 1026 30.3 855 25.25 12.1 53.7 34 -3.4 25.8
09:05 1026 30.3 855 25.25 12 53.6 33 -3.8 25.1
09:10 1026 30.3 855 25.25 12.3 54.2 34 -2.9 26.8
09:15 1026 30.3 855 25.25 11.4 52.5 34 -3.7 25.3
09:20 1026 30.3 855 25.25 11.6 52.8 33 -4.1 24.6
09:25 1026 30.3 855 25.25 12.5 54.4 32 -3.7 25.4
09:30 1026 30.3 855 25.25 12.9 55.2 32 -3.2 26.3
09:35 1026 30.3 855 25.25 12.8 55 31 -3.8 25.2
09:40 1026 30.3 855 25.25 13.2 55.8 31 -3.5 25.8
09:45 1026 30.3 855 25.25 13.2 55.7 31 -3.5 25.6
09:50 1026 30.3 855 25.25 13.3 55.9 31 -3.4 25.9
09:55 1026 30.3 855 25.25 13.5 56.3 30 -3.6 25.5
10:00 1026 30.3 855 25.25 13.7 56.7 29 -3.7 25.3
10:05 1026 30.3 855 25.25 14 57.1 29 -3.5 25.7
10:10 1026 30.3 855 25.25 13.9 57 30 -3.4 25.9
10:15 1026 30.3 855 25.25 13.9 56.9 29 -3.7 25.3
10:20 1026 30.3 855 25.25 13.7 56.7 30 -3.3 26
10:25 1026 30.3 855 25.25 13.7 56.7 29 -3.7 25.3
10:30 1026 30.3 855 25.25 13.9 57 28 -4.1 24.6
10:35 1026 30.3 855 25.25 14.3 57.7 29 -3.7 25.4
10:40 1026 30.3 855 25.25 14 57.3 29 -3.6 25.5
10:45 1026 30.3 855 25.25 13.3 56 32 -3.2 26.3
10:50 1026 30.3 855 25.25 13.9 57.1 29 -3.9 25
10:55 1026 30.3 855 25.25 14.4 57.9 29 -3.6 25.6
11:00 1026 30.3 855 25.25 14.5 58 28 -3.8 25.2
11:05 1026 30.3 855 25.25 14.4 57.9 28 -3.9 25.1
11:10 1026 30.3 855 25.25 13.8 56.9 30 -3.2 26.2
11:15 1026 30.3 855 25.25 13.7 56.6 29 -4.1 24.7
11:20 1026 30.3 855 25.25 14.6 58.2 28 -3.8 25.1
11:25 1026 30.3 855 25.25 14.8 58.6 28 -3.3 26
11:30 1026 30.3 855 25.25 15.2 59.3 28 -3.2 26.3
11:35 1026 30.3 855 25.25 14.6 58.3 28 -3.4 25.9
11:40 1026 30.3 855 25.25 14.7 58.4 28 -3.6 25.4
11:45 1026 30.3 855 25.25 15.3 59.5 26 -3.9 24.9
11:50 1026 30.3 855 25.25 15.5 59.9 26 -3.6 25.5
11:55 1025 30.27 855 25.25 14.4 57.9 29 -3.6 25.5
12:00 1025 30.27 855 25.25 15.1 59.1 27 -3.5 25.6
12:05 1025 30.27 855 25.25 15.3 59.6 26 -3.8 25.2
12:10 1025 30.27 854 25.22 14.8 58.6 28 -3.7 25.3
12:15 1025 30.27 854 25.22 14.4 57.8 27 -4.3 24.3
12:20 1025 30.27 854 25.22 14.2 57.5 28 -4.2 24.5
12:25 1025 30.27 854 25.22 15.2 59.3 26 -4.1 24.7
12:30 1025 30.27 854 25.22 16.3 61.3 25 -3.5 25.6
12:35 1025 30.27 854 25.22 16.5 61.7 24 -4 24.7
12:40 1025 30.27 854 25.22 16.8 62.3 24 -3.9 25
12:45 1025 30.27 854 25.22 16.4 61.4 25 -3.5 25.7
12:50 1025 30.27 854 25.22 16.4 61.5 26 -3.1 26.4
12:55 1025 30.27 854 25.22 16.7 62 25 -3.3 26
13:00 1025 30.27 854 25.22 15.9 60.5 26 -3.3 26
13:05 1025 30.27 854 25.22 15.8 60.4 26 -3.8 25.1
13:10 1025 30.27 854 25.22 16 60.8 25 -4 24.8
13:15 1025 30.27 854 25.22 16.1 60.9 25 -3.9 25
13:20 1025 30.27 854 25.22 17.1 62.7 23 -4.2 24.4
13:25 1025 30.27 854 25.22 17.3 63.2 23 -3.7 25.3
13:30 1025 30.27 854 25.22 17.2 63 23 -3.8 25.2
13:35 1025 30.27 854 25.22 17 62.6 24 -3.7 25.3
13:40 1024 30.24 854 25.22 17.1 62.9 23 -3.8 25.1
13:45 1024 30.24 854 25.22 17.1 62.7 24 -3.6 25.6
13:50 1024 30.24 854 25.22 16.7 62 24 -3.7 25.3
13:55 1024 30.24 854 25.22 17.3 63.1 23 -4 24.8
14:00 1024 30.24 854 25.22 18 64.4 21 -4.4 24.2
14:05 1024 30.24 853 25.19 18 64.4 23 -3.5 25.6
14:10 1024 30.24 853 25.19 17.7 63.9 23 -3.4 25.9
14:15 1024 30.24 853 25.19 18 64.4 22 -3.6 25.5
14:20 1024 30.24 853 25.19 18 64.3 23 -3.6 25.6
14:25 1024 30.24 853 25.19 17.9 64.3 22 -3.9 25.1
14:30 1024 30.24 853 25.19 17.9 64.2 22 -4 24.8
14:35 1024 30.24 853 25.19 17.6 63.7 24 -3.4 26
14:40 1024 30.24 853 25.19 16.7 62 25 -3.3 26
14:45 1024 30.24 853 25.19 17.8 64 22 -4.1 24.6
14:50 1024 30.24 853 25.19 18.3 64.9 22 -3.9 25
14:55 1024 30.24 853 25.19 18 64.3 22 -4 24.8
15:00 1024 30.24 853 25.19 17.8 64.1 22 -4 24.8
15:05 1024 30.24 853 25.19 17.6 63.6 23 -3.9 24.9
15:10 1024 30.24 853 25.19 18.3 65 23 -3.1 26.4
15:15 1024 30.24 853 25.19 18.5 65.3 21 -3.9 25
15:20 1024 30.24 853 25.19 18.7 65.6 21 -4 24.8
15:25 1024 30.24 853 25.19 17.7 63.8 23 -3.4 25.8
15:30 1024 30.24 853 25.19 17.5 63.5 23 -3.7 25.3
15:35 1023 30.21 853 25.19 18.4 65 21 -4.1 24.6
15:40 1023 30.21 853 25.19 17.8 64 23 -3.6 25.6
15:45 1023 30.21 853 25.19 17.9 64.1 22 -4.1 24.6
15:50 1023 30.21 853 25.19 17.7 63.8 22 -4 24.8
15:55 1023 30.21 853 25.19 18.1 64.6 21 -4.3 24.2
16:00 1023 30.21 853 25.19 18.7 65.7 22 -3.3 26
16:05 1023 30.21 853 25.19 18.9 65.9 20 -4.5 23.9
16:10 1023 30.21 852 25.16 18.7 65.7 23 -2.9 26.8
16:15 1023 30.21 852 25.16 18.2 64.8 21 -4.7 23.6
16:20 1023 30.21 852 25.16 18.2 64.8 21 -4.4 24.2
16:25 1023 30.21 852 25.16 18.1 64.6 21 -4.6 23.8
16:30 1023 30.21 852 25.16 18.4 65.1 19 -5.7 21.8
16:35 1023 30.21 852 25.16 18.2 64.8 21 -4.4 24.1
16:40 1023 30.21 852 25.16 17.8 64.1 21 -4.6 23.6
16:45 1023 30.21 852 25.16 18 64.4 20 -4.8 23.3
16:50 1023 30.21 852 25.16 18 64.4 20 -5.1 22.7
16:55 1023 30.21 852 25.16 17.8 64 21 -4.7 23.5
17:00 1023 30.21 852 25.16 17.3 63.2 21 -5.1 22.9
17:05 1023 30.21 852 25.16 17.4 63.4 21 -5.1 22.7
17:10 1023 30.21 852 25.16 17.5 63.5 21 -4.9 23.2
17:15 1023 30.21 852 25.16 17.6 63.7 21 -4.8 23.3
17:20 1023 30.21 852 25.16 17.7 63.9 20 -5.1 22.8
17:25 1023 30.21 852 25.16 17.5 63.5 21 -5.2 22.7
17:30 1023 30.21 852 25.16 17.3 63.2 22 -4.8 23.4
17:35 1023 30.21 852 25.16 17.2 63 22 -4.4 24
17:40 1023 30.21 852 25.16 17.2 62.9 21 -5 23.1
17:45 1023 30.21 852 25.16 16.9 62.5 23 -4.5 23.9
17:50 1023 30.21 852 25.16 16.8 62.3 22 -4.8 23.4
17:55 1023 30.21 852 25.16 16.5 61.7 22 -5 23
18:00 1023 30.21 852 25.16 16.5 61.6 22 -5.1 22.8
18:05 1023 30.21 852 25.16 16.5 61.7 23 -4.7 23.5
18:10 1023 30.21 852 25.16 16.5 61.7 22 -5 23
18:15 1023 30.21 852 25.16 16.4 61.6 26 -3.1 26.5
18:20 1023 30.21 852 25.16 16.5 61.6 23 -4.8 23.3
18:25 1023 30.21 852 25.16 16.4 61.5 22 -5 23
18:30 1023 30.21 852 25.16 16.4 61.5 22 -5.2 22.6
18:35 1023 30.21 852 25.16 16.4 61.5 23 -4.8 23.4
18:40 1023 30.21 852 25.16 16.3 61.4 23 -4.5 24
18:45 1023 30.21 852 25.16 16.2 61.1 23 -4.9 23.3
18:50 1023 30.21 852 25.16 15.9 60.7 24 -4.6 23.7
18:55 1023 30.21 852 25.16 15.7 60.2 24 -5 23
19:00 1023 30.21 852 25.16 15.6 60.1 24 -5 23
19:05 1023 30.21 852 25.16 15.5 59.9 24 -4.8 23.4
19:10 1023 30.21 852 25.16 15.3 59.5 29 -2.7 27.1
19:15 1023 30.21 852 25.16 14.5 58 31 -2.3 27.9
19:20 1023 30.21 852 25.16 13.4 56.1 33 -2.6 27.3
19:25 1023 30.21 852 25.16 12.8 55 33 -2.9 26.7
19:30 1023 30.21 852 25.16 12.3 54.2 35 -2.8 26.9
19:35 1023 30.21 852 25.16 11.9 53.3 37 -2.4 27.7
19:40 1023 30.21 852 25.16 11.5 52.7 37 -2.5 27.5
19:45 1023 30.21 852 25.16 11.2 52.2 38 -2.7 27.2
19:50 1023 30.21 852 25.16 11 51.8 38 -2.9 26.8
19:55 1023 30.21 852 25.16 10.7 51.2 39 -2.8 27
20:00 1023 30.21 852 25.16 10.4 50.7 39 -2.9 26.8
20:05 1023 30.21 852 25.16 10.2 50.4 39 -3.1 26.5
20:10 1023 30.21 852 25.16 10.3 50.6 37 -3.8 25.2
20:15 1023 30.21 852 25.16 10.5 50.9 36 -4 24.7
20:20 1023 30.21 852 25.16 10.5 50.9 37 -3.6 25.6
20:25 1023 30.21 852 25.16 10.3 50.5 37 -3.9 24.9
20:30 1023 30.21 852 25.16 10 50 38 -3.5 25.6
20:35 1023 30.21 852 25.16 9.7 49.4 39 -3.5 25.7
20:40 1023 30.21 852 25.16 9.4 49 41 -3.2 26.2
20:45 1023 30.21 852 25.16 9.1 48.4 41 -3.4 25.8
20:50 1023 30.21 852 25.16 8.9 48.1 41 -3.6 25.5
20:55 1023 30.21 852 25.16 8.8 47.9 41 -3.7 25.4
21:00 1023 30.21 852 25.16 8.9 48.1 40 -4 24.9
21:05 1023 30.21 852 25.16 9.2 48.5 39 -4 24.7
21:10 1023 30.21 852 25.16 9.2 48.6 40 -3.7 25.4
21:15 1023 30.21 852 25.16 9 48.1 40 -3.9 24.9
21:20 1023 30.21 852 25.16 8.8 47.8 40 -4.1 24.6
21:25 1023 30.21 852 25.16 8.6 47.5 40 -4.2 24.5
21:30 1023 30.21 852 25.16 9 48.2 39 -4.4 24.2
21:35 1023 30.21 852 25.16 9.1 48.4 39 -4.2 24.4
21:40 1023 30.21 852 25.16 8.6 47.6 41 -3.9 25
21:45 1023 30.21 852 25.16 8.1 46.6 42 -4 24.8
21:50 1023 30.21 852 25.16 8 46.4 42 -4.2 24.5
21:55 1023 30.21 852 25.16 8.1 46.7 42 -4 24.8
22:00 1023 30.21 852 25.16 8.3 46.9 42 -3.8 25.1
22:05 1023 30.21 853 25.19 8.1 46.6 43 -3.8 25.1
22:10 1023 30.21 853 25.19 8.2 46.8 43 -3.6 25.5
22:15 1023 30.21 852 25.16 8.2 46.8 44 -3.4 25.8
22:20 1023 30.21 852 25.16 8.1 46.5 44 -3.4 25.9
22:25 1023 30.21 852 25.16 8 46.4 44 -3.4 26
22:30 1023 30.21 852 25.16 8 46.4 44 -3.4 25.9
22:35 1023 30.21 852 25.16 7.9 46.3 44 -3.4 25.9
22:40 1023 30.21 852 25.16 8.1 46.6 44 -3.4 25.8
22:45 1023 30.21 852 25.16 8.2 46.8 43 -3.5 25.8
22:50 1023 30.21 852 25.16 8.3 47 44 -3.3 26
22:55 1023 30.21 852 25.16 7.9 46.1 44 -3.6 25.5
23:00 1023 30.21 852 25.16 7.9 46.1 44 -3.7 25.4
23:05 1023 30.21 852 25.16 7.7 45.9 45 -3.4 25.8
23:10 1023 30.21 852 25.16 7.5 45.6 45 -3.5 25.6
23:15 1023 30.21 852 25.16 7.7 45.8 45 -3.6 25.6
23:20 1023 30.21 852 25.16 8 46.4 43 -3.7 25.3
23:25 1023 30.21 852 25.16 8.1 46.6 44 -3.5 25.7
23:30 1023 30.21 852 25.16 7.9 46.1 44 -3.7 25.4
23:35 1023 30.21 852 25.16 7.7 45.9 44 -3.7 25.3
23:40 1023 30.21 852 25.16 7.6 45.6 44 -3.8 25.2
23:45 1023 30.21 852 25.16 7.6 45.6 44 -4 24.9
23:50 1023 30.21 852 25.16 7.5 45.6 45 -3.7 25.3
23:55 1023 30.21 853 25.19 7.5 45.4 44 -3.9 25
24:00 1023 30.21 852 25.16 7.6 45.6 44 -3.9 24.9